Time;durP1;ratioP1;P1;durP2;ratioP2;P2;SDS_P1;SDS_P2;PMS_P1;PMS_P2;Temp;Humidity;BMP_temperature;BMP_pressure;BME280_temperature;BME280_humidity;BME280_pressure;Samples;Min_cycle;Max_cycle;Signal;HPM_P1;HPM_P2
2023/01/07 00:01:03;;;;;;;10.52;7.22;;;12.00;99.90;;;;;;4906313;29;38557;-76
2023/01/07 00:03:29;;;;;;;10.98;7.05;;;11.90;99.90;;;;;;4897768;29;46979;-76
2023/01/07 00:06:00;;;;;;;11.23;6.57;;;12.00;99.90;;;;;;4910666;29;37089;-76
2023/01/07 00:08:29;;;;;;;12.03;7.50;;;11.90;99.90;;;;;;4912960;29;37561;-76
2023/01/07 00:10:56;;;;;;;8.50;7.20;;;11.90;99.90;;;;;;4897124;29;38918;-76
2023/01/07 00:13:22;;;;;;;8.83;6.80;;;11.90;99.90;;;;;;4912210;29;39046;-76
2023/01/07 00:15:48;;;;;;;8.20;6.90;;;12.00;99.90;;;;;;4897141;29;37066;-76
2023/01/07 00:18:14;;;;;;;13.23;7.20;;;11.90;99.90;;;;;;4913435;29;39465;-76
2023/01/07 00:20:40;;;;;;;13.83;6.90;;;11.90;99.90;;;;;;4913677;29;39269;-77
2023/01/07 00:23:06;;;;;;;9.17;6.53;;;11.90;99.90;;;;;;4914355;29;39069;-76
2023/01/07 00:25:32;;;;;;;7.80;6.27;;;11.90;99.90;;;;;;4916616;29;37167;-77
2023/01/07 00:27:58;;;;;;;7.70;6.13;;;11.90;99.90;;;;;;4917193;29;37821;-77
2023/01/07 00:30:24;;;;;;;9.73;6.27;;;11.90;99.90;;;;;;4916012;29;37427;-76
2023/01/07 00:33:03;;;;;;;8.20;6.13;;;11.90;99.90;;;;;;4897887;29;38551;-77
2023/01/07 00:35:31;;;;;;;9.50;5.53;;;11.90;99.90;;;;;;4899842;29;48029;-77
2023/01/07 00:37:57;;;;;;;9.40;6.33;;;12.00;99.90;;;;;;4899892;29;37646;-76
2023/01/07 00:40:23;;;;;;;9.55;5.88;;;12.00;99.90;;;;;;4913172;29;38549;-77
2023/01/07 00:43:03;;;;;;;6.47;4.63;;;12.00;99.90;;;;;;4910318;29;38385;-76
2023/01/07 00:45:34;;;;;;;10.70;5.40;;;12.00;99.90;;;;;;4911087;29;46946;-77
2023/01/07 00:48:02;;;;;;;10.05;5.35;;;12.10;99.90;;;;;;4893840;29;37682;-77
2023/01/07 00:50:34;;;;;;;8.03;5.27;;;12.10;99.90;;;;;;4890686;29;47137;-76
2023/01/07 00:53:00;;;;;;;8.70;5.20;;;12.10;99.90;;;;;;4909317;29;38479;-77
2023/01/07 00:55:27;;;;;;;7.10;5.00;;;12.20;99.90;;;;;;4891968;29;36671;-77
2023/01/07 00:57:54;;;;;;;7.97;5.73;;;12.20;99.90;;;;;;4907179;28;39098;-77
2023/01/07 01:00:21;;;;;;;6.72;4.68;;;12.20;99.90;;;;;;4908249;29;39205;-76
2023/01/07 01:02:49;;;;;;;7.80;5.00;;;12.20;99.90;;;;;;4911939;29;37286;-76
2023/01/07 01:05:15;;;;;;;8.88;5.00;;;12.20;99.90;;;;;;4913098;29;37614;-77
2023/01/07 01:07:41;;;;;;;7.47;4.83;;;12.20;99.90;;;;;;4900486;29;39239;-76
2023/01/07 01:10:10;;;;;;;9.00;5.43;;;12.20;99.90;;;;;;4914144;29;37900;-77
2023/01/07 01:12:37;;;;;;;8.23;5.30;;;12.20;99.90;;;;;;4899236;29;37381;-77
2023/01/07 01:15:10;;;;;;;9.23;5.63;;;12.10;99.90;;;;;;4900480;29;37863;-77
2023/01/07 01:17:37;;;;;;;9.82;6.18;;;12.10;99.90;;;;;;4910721;29;46111;-76
2023/01/07 01:20:05;;;;;;;11.65;5.20;;;12.10;99.90;;;;;;4909189;29;39152;-76
2023/01/07 01:22:31;;;;;;;10.25;6.05;;;12.10;99.90;;;;;;4913078;28;47098;-75
2023/01/07 01:24:58;;;;;;;10.83;4.97;;;12.10;99.90;;;;;;4909629;29;37382;-76
2023/01/07 01:27:24;;;;;;;7.75;5.93;;;12.10;99.90;;;;;;4909291;29;37693;-76
2023/01/07 01:29:50;;;;;;;8.00;5.57;;;12.10;99.90;;;;;;4904249;29;38433;-75
2023/01/07 01:32:16;;;;;;;10.37;6.40;;;12.10;99.90;;;;;;4896366;29;37515;-77
2023/01/07 01:34:42;;;;;;;14.13;6.03;;;12.00;99.90;;;;;;4916556;29;37378;-76
2023/01/07 01:37:08;;;;;;;9.20;6.38;;;12.00;99.90;;;;;;4915342;29;37522;-75
2023/01/07 01:39:34;;;;;;;10.30;6.27;;;11.90;99.90;;;;;;4900652;29;38900;-76
2023/01/07 01:42:00;;;;;;;8.97;6.43;;;11.90;99.90;;;;;;4917797;29;37942;-76
2023/01/07 01:44:51;;;;;;;13.20;7.03;;;11.80;99.90;;;;;;4919384;29;37212;-76
2023/01/07 01:47:29;;;;;;;9.13;7.00;;;11.80;99.90;;;;;;4913914;29;38528;-77
2023/01/07 01:50:25;;;;;;;10.07;7.20;;;11.80;99.90;;;;;;4916537;29;39539;-76
2023/01/07 01:53:02;;;;;;;12.30;7.90;;;11.70;99.90;;;;;;4916537;29;46852;-76
2023/01/07 01:55:34;;;;;;;8.67;7.60;;;11.70;99.90;;;;;;4923114;29;46958;-77
2023/01/07 01:58:05;;;;;;;16.55;8.10;;;11.70;99.90;;;;;;4916864;29;37449;-76
2023/01/07 02:03:10;;;;;;;10.80;8.07;;;11.60;99.90;;;;;;5232347;23;20051;-76
2023/01/07 02:05:40;;;;;;;16.10;7.87;;;11.50;99.90;;;;;;4932000;28;35990;-76
2023/01/07 02:08:07;;;;;;;12.70;7.50;;;11.60;99.90;;;;;;4934596;28;37592;-76
2023/01/07 02:10:34;;;;;;;14.00;8.00;;;11.60;99.90;;;;;;4927985;28;37982;-75
2023/01/07 02:13:09;;;;;;;11.97;7.47;;;11.60;99.90;;;;;;4955002;28;38580;-75
2023/01/07 02:16:00;;;;;;;10.57;7.60;;;11.60;99.90;;;;;;4952543;28;48511;-76
2023/01/07 02:18:55;;;;;;;14.07;8.80;;;11.60;99.90;;;;;;4940995;28;37709;-77
2023/01/07 02:21:49;;;;;;;11.17;8.13;;;11.60;99.90;;;;;;4949778;28;38699;-75
2023/01/07 02:24:48;;;;;;;10.90;8.03;;;11.60;99.90;;;;;;4939593;28;38362;-76
2023/01/07 02:27:44;;;;;;;11.77;7.20;;;11.60;99.90;;;;;;4939083;28;39119;-76
2023/01/07 02:30:18;;;;;;;10.57;7.47;;;11.60;99.90;;;;;;4931091;28;37518;-76
2023/01/07 02:33:06;;;;;;;12.80;7.70;;;11.60;99.90;;;;;;4941669;28;37983;-76
2023/01/07 02:36:04;;;;;;;9.30;6.87;;;11.60;99.90;;;;;;4930111;28;47339;-76
2023/01/07 02:38:54;;;;;;;12.20;7.33;;;11.60;99.90;;;;;;4932901;28;47087;-76
2023/01/07 02:41:50;;;;;;;11.07;6.50;;;11.60;99.90;;;;;;4952403;28;39933;-76
2023/01/07 02:44:58;;;;;;;10.23;6.43;;;11.60;99.90;;;;;;4944128;28;39806;-76
2023/01/07 02:48:01;;;;;;;9.13;5.57;;;11.60;99.90;;;;;;4916483;28;38517;-76
2023/01/07 02:50:27;;;;;;;11.48;6.40;;;11.60;99.90;;;;;;4891185;28;47241;-76
2023/01/07 02:52:53;;;;;;;8.33;5.90;;;11.60;99.90;;;;;;4940989;28;38250;-75
2023/01/07 02:55:29;;;;;;;13.77;6.33;;;11.50;99.90;;;;;;4941206;28;38964;-76
2023/01/07 02:58:29;;;;;;;11.50;5.97;;;11.50;99.90;;;;;;4947224;28;39244;-75
2023/01/07 03:01:12;;;;;;;13.73;6.23;;;11.50;99.90;;;;;;4921013;28;47145;-76
2023/01/07 03:03:49;;;;;;;11.50;6.40;;;11.50;99.90;;;;;;4925304;28;46855;-74
2023/01/07 03:06:18;;;;;;;11.47;7.27;;;11.40;99.90;;;;;;4934702;28;37739;-75
2023/01/07 03:09:02;;;;;;;10.27;6.63;;;11.40;99.90;;;;;;4926403;28;37376;-75
2023/01/07 03:11:35;;;;;;;10.63;6.87;;;11.30;99.90;;;;;;4938878;28;47164;-75
2023/01/07 03:14:16;;;;;;;8.97;6.70;;;11.40;99.90;;;;;;4926384;28;39997;-75
2023/01/07 03:17:05;;;;;;;13.60;6.80;;;11.30;99.90;;;;;;4923631;28;47349;-74
2023/01/07 03:19:35;;;;;;;10.07;5.77;;;11.30;99.90;;;;;;4933847;28;47339;-75
2023/01/07 03:22:05;;;;;;;8.27;6.07;;;11.40;99.90;;;;;;4930223;28;36823;-75
2023/01/07 03:24:32;;;;;;;10.93;6.43;;;11.30;99.90;;;;;;4948742;28;48250;-76
2023/01/07 03:27:01;;;;;;;11.03;6.67;;;11.40;99.90;;;;;;4952313;28;39947;-75
2023/01/07 03:29:30;;;;;;;14.53;7.40;;;11.40;99.90;;;;;;4938597;28;47051;-75
2023/01/07 03:32:14;;;;;;;12.17;6.10;;;11.40;99.90;;;;;;4951094;28;37324;-74
2023/01/07 03:34:42;;;;;;;10.47;6.00;;;11.40;99.90;;;;;;4930907;28;46911;-75
2023/01/07 03:37:27;;;;;;;10.97;5.90;;;11.40;99.90;;;;;;4927706;28;37665;-74
2023/01/07 03:39:54;;;;;;;10.40;5.97;;;11.40;99.90;;;;;;4928579;28;38736;-75
2023/01/07 03:42:40;;;;;;;8.50;5.60;;;11.40;99.90;;;;;;4944105;28;38809;-75
2023/01/07 03:45:10;;;;;;;9.70;5.53;;;11.50;99.90;;;;;;4936890;28;39307;-76
2023/01/07 03:47:39;;;;;;;10.77;5.70;;;11.50;99.90;;;;;;4923751;28;39132;-75
2023/01/07 03:50:05;;;;;;;8.67;6.13;;;11.50;99.90;;;;;;4928337;28;37466;-76
2023/01/07 03:52:31;;;;;;;13.07;6.07;;;11.50;99.90;;;;;;4932758;28;36633;-75
2023/01/07 03:54:57;;;;;;;9.57;6.20;;;11.60;99.90;;;;;;4943659;28;38789;-75
2023/01/07 03:57:23;;;;;;;10.03;6.40;;;11.50;99.90;;;;;;4941734;28;38619;-76
2023/01/07 03:59:49;;;;;;;13.07;7.30;;;11.60;99.90;;;;;;4939752;28;37295;-75
2023/01/07 04:02:15;;;;;;;13.27;7.90;;;11.60;99.90;;;;;;4941142;28;40402;-74
2023/01/07 04:04:42;;;;;;;11.63;6.83;;;11.60;99.90;;;;;;4945614;28;38515;-76
2023/01/07 04:07:08;;;;;;;15.83;6.57;;;11.60;99.90;;;;;;4941776;28;38509;-75
2023/01/07 04:09:34;;;;;;;12.00;6.63;;;11.60;99.90;;;;;;4938433;28;37826;-76
2023/01/07 04:12:00;;;;;;;11.17;6.53;;;11.60;99.90;;;;;;4928101;28;37059;-74
2023/01/07 04:14:26;;;;;;;12.53;6.23;;;11.60;99.90;;;;;;4926723;28;38064;-76
2023/01/07 04:16:52;;;;;;;11.85;6.90;;;11.70;99.90;;;;;;4942085;28;39561;-75
2023/01/07 04:19:18;;;;;;;13.15;7.15;;;11.70;99.90;;;;;;4929984;28;38708;-76
2023/01/07 04:21:44;;;;;;;10.25;7.25;;;11.70;99.90;;;;;;4925718;28;36565;-75
2023/01/07 04:24:10;;;;;;;13.60;7.80;;;11.60;99.90;;;;;;4927867;28;37490;-74
2023/01/07 04:26:36;;;;;;;13.53;7.67;;;11.60;99.90;;;;;;4926379;28;37475;-75
2023/01/07 04:29:03;;;;;;;14.00;8.03;;;11.60;99.90;;;;;;4923570;28;38530;-76
2023/01/07 04:31:29;;;;;;;13.13;7.80;;;11.60;99.90;;;;;;4942744;28;37428;-75
2023/01/07 04:33:55;;;;;;;15.53;9.07;;;11.60;99.90;;;;;;4940652;28;38053;-76
2023/01/07 04:36:21;;;;;;;14.93;9.13;;;11.60;99.90;;;;;;4924925;28;38260;-75
2023/01/07 04:38:47;;;;;;;15.83;9.13;;;11.60;99.90;;;;;;4941198;28;38376;-75
2023/01/07 04:41:13;;;;;;;9.93;8.60;;;11.50;99.90;;;;;;4929527;28;37482;-75
2023/01/07 04:43:39;;;;;;;14.17;9.03;;;11.60;99.90;;;;;;4952005;28;38128;-75
2023/01/07 04:46:05;;;;;;;14.57;9.10;;;11.60;99.90;;;;;;4947575;28;38950;-77
2023/01/07 04:48:32;;;;;;;19.60;10.30;;;11.60;99.90;;;;;;4943406;28;38498;-75
2023/01/07 04:50:58;;;;;;;14.75;9.63;;;11.60;99.90;;;;;;4943146;28;36963;-75
2023/01/07 04:53:24;;;;;;;14.87;8.33;;;11.60;99.90;;;;;;4934031;28;37843;-75
2023/01/07 04:55:52;;;;;;;15.60;9.25;;;11.60;99.90;;;;;;4954181;28;38652;-76
2023/01/07 04:58:18;;;;;;;15.60;9.63;;;11.60;99.90;;;;;;4948378;28;38014;-76
2023/01/07 05:00:45;;;;;;;13.75;9.38;;;11.60;99.90;;;;;;4934247;28;36342;-76
2023/01/07 05:03:12;;;;;;;12.53;9.23;;;11.60;99.90;;;;;;4930254;28;37882;-75
2023/01/07 05:05:38;;;;;;;14.27;8.87;;;11.60;99.90;;;;;;4948455;28;38681;-75
2023/01/07 05:08:04;;;;;;;12.10;9.13;;;11.60;99.90;;;;;;4930283;28;38244;-76
2023/01/07 05:10:31;;;;;;;15.40;9.53;;;11.60;99.90;;;;;;4927066;28;37984;-76
2023/01/07 05:12:57;;;;;;;11.97;7.63;;;11.60;99.90;;;;;;4942842;28;39911;-75
2023/01/07 05:15:24;;;;;;;10.80;7.63;;;11.60;99.90;;;;;;4948786;28;39881;-76
2023/01/07 05:17:50;;;;;;;14.40;8.43;;;11.60;99.90;;;;;;4930542;28;36495;-75
2023/01/07 05:20:16;;;;;;;15.88;7.90;;;11.70;99.90;;;;;;4947910;28;38253;-76
2023/01/07 05:22:42;;;;;;;12.20;8.10;;;11.70;99.90;;;;;;4941352;28;39455;-74
2023/01/07 05:25:08;;;;;;;13.17;7.53;;;11.60;99.90;;;;;;4953352;28;38651;-76
2023/01/07 05:27:34;;;;;;;8.87;6.87;;;11.60;99.90;;;;;;4938352;28;38103;-76
2023/01/07 05:30:00;;;;;;;9.40;6.50;;;11.60;99.90;;;;;;4946115;28;37294;-76
2023/01/07 05:32:26;;;;;;;11.77;6.10;;;11.60;99.90;;;;;;4945536;28;38860;-76
2023/01/07 05:34:53;;;;;;;9.77;6.63;;;11.60;99.90;;;;;;4941474;28;37887;-76
2023/01/07 05:37:19;;;;;;;10.17;6.20;;;11.60;99.90;;;;;;4950098;28;38175;-76
2023/01/07 05:39:45;;;;;;;10.82;7.10;;;11.60;99.90;;;;;;4954291;28;36854;-75
2023/01/07 05:42:11;;;;;;;10.63;6.53;;;11.60;99.90;;;;;;4939989;28;38774;-75
2023/01/07 05:44:37;;;;;;;9.83;6.80;;;11.50;99.90;;;;;;4935523;28;38959;-75
2023/01/07 05:47:03;;;;;;;13.37;7.17;;;11.40;99.90;;;;;;4945829;28;37958;-75
2023/01/07 05:49:29;;;;;;;13.57;8.00;;;11.50;99.90;;;;;;4927485;28;36224;-75
2023/01/07 05:51:55;;;;;;;11.87;7.50;;;11.50;99.90;;;;;;4944283;28;38703;-74
2023/01/07 05:54:21;;;;;;;10.73;6.93;;;11.50;99.90;;;;;;4920967;28;37817;-75
2023/01/07 05:56:47;;;;;;;10.60;7.47;;;11.50;99.90;;;;;;4916995;28;37915;-75
2023/01/07 05:59:14;;;;;;;14.70;8.10;;;11.50;99.90;;;;;;4922647;28;34932;-75
2023/01/07 06:01:40;;;;;;;14.00;7.00;;;11.50;99.90;;;;;;4940616;28;38943;-75
2023/01/07 06:04:07;;;;;;;12.70;6.97;;;11.50;99.90;;;;;;4938958;28;38244;-74
2023/01/07 06:06:33;;;;;;;13.33;6.87;;;11.50;99.90;;;;;;4923602;28;39095;-74
2023/01/07 06:08:59;;;;;;;11.97;6.57;;;11.50;99.90;;;;;;4941083;28;39212;-75
2023/01/07 06:11:25;;;;;;;13.37;7.73;;;11.50;99.90;;;;;;4941200;28;39342;-74
2023/01/07 06:13:51;;;;;;;12.43;6.30;;;11.40;99.90;;;;;;4928183;28;37637;-75
2023/01/07 06:16:17;;;;;;;11.53;6.70;;;11.40;99.90;;;;;;4930357;28;37366;-75
2023/01/07 06:18:43;;;;;;;13.67;6.50;;;11.40;99.90;;;;;;4928574;28;36051;-75
2023/01/07 06:21:09;;;;;;;10.30;5.63;;;11.40;99.90;;;;;;4943108;28;38920;-74
2023/01/07 06:23:36;;;;;;;13.30;6.20;;;11.40;99.90;;;;;;4945629;28;38402;-75
2023/01/07 06:26:02;;;;;;;12.50;5.73;;;11.30;99.90;;;;;;4944137;28;38616;-75
2023/01/07 06:28:28;;;;;;;8.07;5.57;;;11.30;99.90;;;;;;4928752;28;37282;-75
2023/01/07 06:30:54;;;;;;;12.20;5.57;;;11.40;99.90;;;;;;4939345;28;38827;-74
2023/01/07 06:33:20;;;;;;;13.03;5.77;;;11.40;99.90;;;;;;4945804;28;38425;-75
2023/01/07 06:35:46;;;;;;;8.83;4.57;;;11.30;99.90;;;;;;4946680;28;36761;-75
2023/01/07 06:38:12;;;;;;;8.83;4.60;;;11.40;99.90;;;;;;4950455;28;36823;-74
2023/01/07 06:40:39;;;;;;;6.47;4.23;;;11.40;99.90;;;;;;4959972;28;40082;-75
2023/01/07 06:43:05;;;;;;;7.77;3.90;;;11.50;99.90;;;;;;4936468;28;37515;-75
2023/01/07 06:45:31;;;;;;;8.47;4.40;;;11.60;99.90;;;;;;4948517;28;36806;-76
2023/01/07 06:47:57;;;;;;;7.17;3.43;;;11.60;99.90;;;;;;4947534;28;38709;-75
2023/01/07 06:50:24;;;;;;;8.03;3.43;;;11.60;99.90;;;;;;4929796;28;37653;-75
2023/01/07 06:52:50;;;;;;;5.67;2.80;;;11.70;99.90;;;;;;4948496;28;39785;-75
2023/01/07 06:55:16;;;;;;;11.17;3.33;;;11.70;99.90;;;;;;4931212;28;37394;-75
2023/01/07 06:57:42;;;;;;;7.13;3.00;;;11.70;99.90;;;;;;4948421;28;37628;-75
2023/01/07 07:00:09;;;;;;;7.93;3.13;;;11.70;99.90;;;;;;4944430;28;38407;-75
2023/01/07 07:02:35;;;;;;;5.67;2.40;;;11.70;99.90;;;;;;4931064;28;37788;-76
2023/01/07 07:05:01;;;;;;;8.40;2.30;;;11.70;99.90;;;;;;4947319;28;38097;-76
2023/01/07 07:07:27;;;;;;;3.43;2.40;;;11.70;99.90;;;;;;4932823;28;36274;-76
2023/01/07 07:09:53;;;;;;;4.17;1.93;;;11.80;99.90;;;;;;4932646;28;38703;-76
2023/01/07 07:12:19;;;;;;;3.63;2.40;;;11.80;99.90;;;;;;4938587;28;39048;-76
2023/01/07 07:14:45;;;;;;;4.00;2.28;;;11.70;99.90;;;;;;4939527;28;38337;-75
2023/01/07 07:17:11;;;;;;;5.43;2.37;;;11.70;99.90;;;;;;4940093;28;35318;-73
2023/01/07 07:19:37;;;;;;;6.10;2.33;;;11.70;99.90;;;;;;4953093;28;37950;-78
2023/01/07 07:22:03;;;;;;;5.20;2.20;;;11.70;99.90;;;;;;4937100;28;39299;-75
2023/01/07 07:24:30;;;;;;;4.17;2.00;;;11.70;99.90;;;;;;4925523;28;37599;-75
2023/01/07 07:26:56;;;;;;;4.55;2.00;;;11.70;99.90;;;;;;4942767;28;37187;-76
2023/01/07 07:29:22;;;;;;;4.80;2.13;;;11.80;99.90;;;;;;4946215;28;38706;-75
2023/01/07 07:31:48;;;;;;;3.07;1.93;;;11.80;99.90;;;;;;4934935;28;38043;-76
2023/01/07 07:34:14;;;;;;;2.93;2.00;;;11.80;99.90;;;;;;4931961;28;37474;-76
2023/01/07 07:36:40;;;;;;;5.53;2.40;;;11.80;99.90;;;;;;4919423;28;36293;-76
2023/01/07 07:39:06;;;;;;;5.07;2.73;;;11.80;99.90;;;;;;4924153;28;38242;-74
2023/01/07 07:41:32;;;;;;;5.40;2.10;;;11.80;99.90;;;;;;4927541;28;38655;-75
2023/01/07 07:43:58;;;;;;;3.47;2.10;;;11.80;99.90;;;;;;4926443;28;38015;-76
2023/01/07 07:46:24;;;;;;;3.77;1.90;;;11.80;99.90;;;;;;4930051;28;36750;-76
2023/01/07 07:48:50;;;;;;;3.00;1.80;;;11.90;99.90;;;;;;4931597;28;38071;-77
2023/01/07 07:51:17;;;;;;;3.00;1.70;;;11.80;99.90;;;;;;4924814;28;39472;-75
2023/01/07 07:53:43;;;;;;;4.57;1.70;;;11.80;99.90;;;;;;4948106;28;38453;-75
2023/01/07 07:56:09;;;;;;;3.73;2.10;;;11.80;99.90;;;;;;4927359;28;36883;-75
2023/01/07 07:58:35;;;;;;;3.77;1.77;;;11.80;99.90;;;;;;4924710;28;37374;-75
2023/01/07 08:01:01;;;;;;;7.30;2.37;;;11.80;99.90;;;;;;4940305;28;38743;-75
2023/01/07 08:03:27;;;;;;;3.03;1.73;;;11.80;99.90;;;;;;4938183;28;48510;-75
2023/01/07 08:05:53;;;;;;;3.73;1.80;;;11.80;99.90;;;;;;4939254;28;37310;-75
2023/01/07 08:08:19;;;;;;;3.57;1.90;;;11.80;99.90;;;;;;4937075;28;38693;-76
2023/01/07 08:10:45;;;;;;;4.38;1.55;;;11.90;99.90;;;;;;4931042;28;39350;-74
2023/01/07 08:13:11;;;;;;;2.92;1.42;;;11.90;99.90;;;;;;4921057;28;37880;-75
2023/01/07 08:15:38;;;;;;;5.57;1.60;;;11.90;99.90;;;;;;4938629;28;36703;-75
2023/01/07 08:18:09;;;;;;;2.60;1.50;;;11.90;99.90;;;;;;4928020;28;39415;-76
2023/01/07 08:20:36;;;;;;;2.20;1.40;;;11.90;99.90;;;;;;4929165;28;37659;-74
2023/01/07 08:23:04;;;;;;;1.73;0.90;;;11.90;99.90;;;;;;4939957;28;36519;-75
2023/01/07 08:25:31;;;;;;;2.40;1.40;;;11.90;99.90;;;;;;4939772;28;37033;-76
2023/01/07 08:27:58;;;;;;;1.87;1.07;;;11.80;99.90;;;;;;4923771;28;37454;-74
2023/01/07 08:30:25;;;;;;;1.98;1.10;;;11.90;99.90;;;;;;4925522;28;40069;-75
2023/01/07 08:32:51;;;;;;;3.33;1.10;;;11.90;99.90;;;;;;4947280;28;39521;-75
2023/01/07 08:35:18;;;;;;;2.30;1.20;;;11.90;99.90;;;;;;4936060;28;36323;-75
2023/01/07 08:37:44;;;;;;;3.40;1.20;;;11.80;99.90;;;;;;4937176;28;37509;-75
2023/01/07 08:40:11;;;;;;;3.93;1.20;;;11.90;99.90;;;;;;4945398;28;38867;-74
2023/01/07 08:42:39;;;;;;;4.47;1.20;;;11.90;99.90;;;;;;4935106;28;39675;-77
2023/01/07 08:45:07;;;;;;;1.70;1.10;;;11.90;99.90;;;;;;4951971;28;37456;-76
2023/01/07 08:47:33;;;;;;;1.10;1.00;;;11.90;99.90;;;;;;4934541;28;37547;-75
2023/01/07 08:49:59;;;;;;;3.33;0.90;;;12.00;99.90;;;;;;4939574;28;37388;-76
2023/01/07 08:52:25;;;;;;;1.80;0.90;;;12.00;99.90;;;;;;4931992;28;37371;-76
2023/01/07 08:54:51;;;;;;;1.35;1.00;;;12.00;99.90;;;;;;4930009;28;37646;-76
2023/01/07 08:57:18;;;;;;;4.80;1.17;;;12.00;99.90;;;;;;4945108;28;38711;-76
2023/01/07 08:59:44;;;;;;;2.13;1.20;;;12.00;99.90;;;;;;4927131;28;37530;-75
2023/01/07 09:02:16;;;;;;;1.00;0.67;;;12.00;99.90;;;;;;4941569;28;38581;-76
2023/01/07 09:04:42;;;;;;;1.33;0.93;;;12.00;99.90;;;;;;4928129;28;36714;-76
2023/01/07 09:07:09;;;;;;;1.33;0.80;;;12.00;99.90;;;;;;4922739;28;37772;-79
2023/01/07 09:09:36;;;;;;;1.53;0.90;;;12.00;99.90;;;;;;4929867;28;37694;-77
2023/01/07 09:12:03;;;;;;;1.43;0.80;;;12.00;99.90;;;;;;4925958;28;36839;-76
2023/01/07 09:14:29;;;;;;;5.47;1.03;;;12.00;99.90;;;;;;4921001;28;36406;-75
2023/01/07 09:16:55;;;;;;;1.43;0.80;;;12.00;99.90;;;;;;4939140;28;38648;-76
2023/01/07 09:19:21;;;;;;;2.30;1.10;;;12.00;99.90;;;;;;4940203;28;39209;-76
2023/01/07 09:21:47;;;;;;;1.67;1.00;;;12.10;99.90;;;;;;4938131;28;37679;-76
2023/01/07 09:24:13;;;;;;;2.30;0.80;;;12.00;99.90;;;;;;4938871;28;38534;-76
2023/01/07 09:26:39;;;;;;;3.03;0.90;;;12.00;99.90;;;;;;4942775;28;39161;-74
2023/01/07 09:29:05;;;;;;;1.20;0.80;;;12.00;99.90;;;;;;4925849;28;37703;-75
2023/01/07 09:31:31;;;;;;;1.25;0.80;;;12.10;99.90;;;;;;4945021;28;39249;-76
2023/01/07 09:33:57;;;;;;;1.97;0.87;;;12.10;99.90;;;;;;4941516;28;38009;-76
2023/01/07 09:36:24;;;;;;;3.43;1.20;;;12.10;99.90;;;;;;4950674;28;38581;-76
2023/01/07 09:38:50;;;;;;;1.33;0.87;;;12.20;99.90;;;;;;4933988;28;38413;-78
2023/01/07 09:41:28;;;;;;;2.73;0.97;;;12.20;99.90;;;;;;4951036;28;39489;-76
2023/01/07 09:44:03;;;;;;;2.53;0.90;;;12.20;99.90;;;;;;4931920;28;37651;-77
2023/01/07 09:46:31;;;;;;;3.20;0.93;;;12.30;99.90;;;;;;4942170;28;48208;-74
2023/01/07 09:49:01;;;;;;;1.85;0.60;;;12.30;99.90;;;;;;4948513;28;38972;-78
2023/01/07 09:51:36;;;;;;;1.33;0.75;;;12.30;99.90;;;;;;4947078;28;38350;-76
2023/01/07 09:54:04;;;;;;;2.28;0.85;;;12.40;99.90;;;;;;4945506;28;37686;-74
2023/01/07 09:56:32;;;;;;;2.70;0.90;;;12.30;99.90;;;;;;4942687;28;48821;-73
2023/01/07 09:59:00;;;;;;;1.95;1.00;;;12.40;99.90;;;;;;4932261;28;37772;-75
2023/01/07 10:01:54;;;;;;;1.47;0.63;;;12.30;99.90;;;;;;4927168;28;37283;-74
2023/01/07 10:04:41;;;;;;;0.95;0.60;;;12.30;99.90;;;;;;4936783;28;36120;-73
2023/01/07 10:07:27;;;;;;;2.45;0.82;;;12.40;99.90;;;;;;4930001;28;37596;-73
2023/01/07 10:09:56;;;;;;;0.60;0.60;;;12.40;99.90;;;;;;4930164;28;39416;-74
2023/01/07 10:13:03;;;;;;;1.70;0.83;;;12.40;99.90;;;;;;4941591;28;39474;-74
2023/01/07 10:15:39;;;;;;;1.13;0.70;;;12.50;99.90;;;;;;4941209;28;49130;-75
2023/01/07 10:18:45;;;;;;;1.08;0.80;;;12.50;99.90;;;;;;4947483;28;37869;-75
2023/01/07 10:21:14;;;;;;;1.08;0.60;;;12.40;99.90;;;;;;4938432;28;38576;-75
2023/01/07 10:23:48;;;;;;;1.38;0.80;;;12.50;99.90;;;;;;4942125;28;38010;-75
2023/01/07 10:26:36;;;;;;;1.15;0.63;;;12.50;99.90;;;;;;4951746;28;37142;-76
2023/01/07 10:29:15;;;;;;;0.68;0.60;;;12.50;99.90;;;;;;4947953;28;38951;-75
2023/01/07 10:31:42;;;;;;;0.47;0.47;;;12.60;99.90;;;;;;4940167;28;37425;-75
2023/01/07 10:34:14;;;;;;;1.23;0.60;;;12.70;99.90;;;;;;4940801;28;38299;-76
2023/01/07 10:36:53;;;;;;;0.70;0.45;;;12.60;99.90;;;;;;4939324;28;36217;-76
2023/01/07 10:39:31;;;;;;;2.70;0.82;;;12.70;99.90;;;;;;4940902;28;38510;-76
2023/01/07 10:42:08;;;;;;;1.85;0.68;;;12.70;99.90;;;;;;4945808;28;39509;-75
2023/01/07 10:44:54;;;;;;;1.08;0.50;;;12.70;99.90;;;;;;4956110;28;48477;-80
2023/01/07 10:47:38;;;;;;;1.40;0.60;;;12.70;99.90;;;;;;4952474;28;36802;-75
2023/01/07 10:50:21;;;;;;;2.53;0.68;;;12.70;99.90;;;;;;4929263;28;39246;-76
2023/01/07 10:53:12;;;;;;;3.03;0.80;;;12.70;99.90;;;;;;4953269;28;38785;-75
2023/01/07 10:55:47;;;;;;;2.40;0.82;;;12.80;99.90;;;;;;4948861;28;48388;-74
2023/01/07 10:58:13;;;;;;;0.77;0.50;;;12.80;99.90;;;;;;4931055;28;36453;-74
2023/01/07 11:00:39;;;;;;;1.98;0.50;;;12.80;99.90;;;;;;4956384;28;38966;-75
2023/01/07 11:03:18;;;;;;;0.70;0.65;;;12.80;99.90;;;;;;4957948;28;41405;-75
2023/01/07 11:05:45;;;;;;;1.95;0.32;;;12.80;99.90;;;;;;4931857;28;37051;-74
2023/01/07 11:08:23;;;;;;;1.05;0.60;;;12.80;99.90;;;;;;4956165;28;39460;-75
2023/01/07 11:10:49;;;;;;;1.02;0.70;;;12.80;99.90;;;;;;4939689;28;37509;-75
2023/01/07 11:13:21;;;;;;;1.55;0.80;;;12.80;99.90;;;;;;4938860;28;37551;-76
2023/01/07 11:16:09;;;;;;;1.05;0.65;;;12.80;99.90;;;;;;4955031;28;39671;-75
2023/01/07 11:18:54;;;;;;;4.40;0.70;;;12.80;99.90;;;;;;4936494;28;47068;-75
2023/01/07 11:21:46;;;;;;;0.93;0.63;;;12.80;99.90;;;;;;4949432;28;38629;-76
2023/01/07 11:24:18;;;;;;;0.63;0.50;;;12.80;99.90;;;;;;4938942;28;38073;-76
2023/01/07 11:26:45;;;;;;;5.00;0.90;;;12.80;99.90;;;;;;4964460;28;37848;-76
2023/01/07 11:29:33;;;;;;;0.68;0.60;;;12.80;99.90;;;;;;4963968;28;36498;-76
2023/01/07 11:32:02;;;;;;;0.80;0.60;;;12.90;99.90;;;;;;4947800;28;38760;-77
2023/01/07 11:34:47;;;;;;;1.08;0.55;;;12.80;99.90;;;;;;4948081;28;48880;-76
2023/01/07 11:37:39;;;;;;;1.45;0.50;;;12.80;99.90;;;;;;4952001;28;37331;-76
2023/01/07 11:40:26;;;;;;;1.58;0.70;;;12.90;99.90;;;;;;4930944;28;37204;-76
2023/01/07 11:43:15;;;;;;;0.57;0.57;;;12.80;99.90;;;;;;4949662;28;39373;-77
2023/01/07 11:45:55;;;;;;;3.25;0.70;;;12.80;99.90;;;;;;4929311;28;47393;-78
2023/01/07 11:48:41;;;;;;;1.35;0.77;;;12.70;99.90;;;;;;4933207;28;36985;-76
2023/01/07 11:51:09;;;;;;;2.00;0.80;;;12.70;99.90;;;;;;4936767;28;35574;-75
2023/01/07 11:53:52;;;;;;;1.05;0.75;;;12.70;99.90;;;;;;4952822;28;38980;-76
2023/01/07 11:56:29;;;;;;;1.80;1.00;;;12.70;99.90;;;;;;4960051;28;39032;-76
2023/01/07 11:59:10;;;;;;;2.53;1.02;;;12.70;99.90;;;;;;4957224;28;37967;-77
2023/01/07 12:01:46;;;;;;;0.90;0.88;;;12.60;99.90;;;;;;4959597;28;49823;-75
2023/01/07 12:04:30;;;;;;;1.92;0.70;;;12.60;99.90;;;;;;4927271;28;37536;-76
2023/01/07 12:07:01;;;;;;;1.98;1.00;;;12.60;99.90;;;;;;4924444;28;20119;-75
2023/01/07 12:09:30;;;;;;;2.53;1.00;;;12.60;99.90;;;;;;4919066;28;47349;-76
2023/01/07 12:12:33;;;;;;;1.83;1.15;;;12.60;99.90;;;;;;4921125;28;36074;-76
2023/01/07 12:15:22;;;;;;;1.90;1.00;;;12.60;99.90;;;;;;4913304;28;47018;-76
2023/01/07 12:17:57;;;;;;;2.57;0.97;;;12.50;99.90;;;;;;4932395;28;48877;-75
2023/01/07 12:20:38;;;;;;;1.35;1.15;;;12.60;99.90;;;;;;4916058;29;38035;-75
2023/01/07 12:23:18;;;;;;;0.85;0.85;;;12.50;99.90;;;;;;4932842;28;38001;-76
2023/01/07 12:26:13;;;;;;;3.97;1.63;;;12.50;99.90;;;;;;4917746;28;38936;-74
2023/01/07 12:29:13;;;;;;;2.47;1.83;;;12.60;99.90;;;;;;4907939;28;46928;-77
2023/01/07 12:32:02;;;;;;;1.25;1.05;;;12.50;99.90;;;;;;4930795;28;48877;-76
2023/01/07 12:34:48;;;;;;;1.45;1.10;;;12.50;99.90;;;;;;4913666;28;47300;-79
2023/01/07 12:37:32;;;;;;;2.22;1.15;;;12.60;99.90;;;;;;4911288;28;38018;-76
2023/01/07 12:40:30;;;;;;;1.58;1.10;;;12.60;99.90;;;;;;4930034;28;38444;-76
2023/01/07 12:43:07;;;;;;;2.92;1.10;;;12.60;99.90;;;;;;4935367;28;48335;-78
2023/01/07 12:45:39;;;;;;;3.03;1.10;;;12.60;99.90;;;;;;4935842;28;49181;-75
2023/01/07 12:48:15;;;;;;;3.38;1.20;;;12.60;99.90;;;;;;4923461;28;40223;-76
2023/01/07 12:50:48;;;;;;;1.27;1.00;;;12.60;99.90;;;;;;4930836;28;39344;-76
2023/01/07 12:53:24;;;;;;;0.82;0.80;;;12.60;99.90;;;;;;4918712;28;37249;-78
2023/01/07 12:55:58;;;;;;;1.33;0.85;;;12.60;99.90;;;;;;4916955;28;36377;-75
2023/01/07 12:58:35;;;;;;;3.33;1.05;;;12.60;99.90;;;;;;4927588;28;39653;-75
2023/01/07 13:01:15;;;;;;;1.95;1.25;;;12.60;99.90;;;;;;4921353;28;38671;-75
2023/01/07 13:03:54;;;;;;;1.88;1.13;;;12.70;99.90;;;;;;4934090;28;48762;-75
2023/01/07 13:06:32;;;;;;;1.42;1.00;;;12.70;99.90;;;;;;4931162;28;34606;-73
2023/01/07 13:09:37;;;;;;;1.15;1.05;;;12.70;99.90;;;;;;4941288;28;38460;-75